Terminal Aerodrome Forecast
Issued by NWS Charleston, WV

Current Version | Previous Version | Graphics & Text | Print | Product List | Glossary On
Versions: 1 2 3 4 5 6 7 8 9 10 11 12 13 14 15 16 17 18 19 20 21 22
657
FTUS41 KRLX 130208 AAA
TAFBKW
TAF AMD
KBKW 130208Z 1302/1324 30015G23KT 3SM -SHSN BR SCT015 OVC025
      TEMPO 1302/1305 3/4SM -SHSN BR BKN010 OVC020
     FM130700 32018G27KT 5SM -SHSN BKN020
     FM131000 31016G26KT P6SM BKN025
     FM132100 31013G22KT P6SM BKN035=

USA.gov is the U.S. government's official web portal to all federal, state and local government web resources and services.